Terminal Aerodrome Forecast
Issued by NWS

Home | Current Version | Previous Version | Text Only | Print | Product List | Glossary On
Versions: 1 2 3 4 5 6 7 8 9 10 11 12 13
000
FTAK31 PAJN 041700
TAFAPG
TAF
PAPG 041720Z 0418/0518 VRB03KT P6SM VCSH OVC035
     FM042100 VRB04KT 5SM -RA BR SCT015 OVC025
     FM050600 VRB05KT 4SM -RA BR OVC015
      AMD LTD TO CLD VIS AND WIND 0506/0515=

USA.gov is the U.S. government's official web portal to all federal, state and local government web resources and services.